Time;durP1;ratioP1;P1;durP2;ratioP2;P2;SDS_P1;SDS_P2;PMS_P1;PMS_P2;Temp;Humidity;BMP_temperature;BMP_pressure;BME280_temperature;BME280_humidity;BME280_pressure;Samples;Min_cycle;Max_cycle;Signal;HPM_P1;HPM_P2
2022/12/11 00:01:31;;;;;;;40.92;19.05;;;-2.20;99.90;;;;;;4967935;28;20138;-59
2022/12/11 00:03:58;;;;;;;38.83;17.63;;;-2.20;99.90;;;;;;4968183;28;20513;-59
2022/12/11 00:06:25;;;;;;;34.25;16.90;;;-2.20;99.90;;;;;;4968199;28;20086;-60
2022/12/11 00:08:53;;;;;;;40.28;16.75;;;-2.20;99.90;;;;;;4968587;28;20126;-62
2022/12/11 00:11:20;;;;;;;47.03;18.05;;;-2.30;99.90;;;;;;4983194;28;20055;-61
2022/12/11 00:13:47;;;;;;;41.55;16.40;;;-2.30;99.90;;;;;;4968476;28;20159;-61
2022/12/11 00:16:14;;;;;;;40.03;17.60;;;-2.30;99.90;;;;;;4968304;28;20476;-59
2022/12/11 00:18:40;;;;;;;34.92;16.33;;;-2.30;99.90;;;;;;4968800;28;20051;-59
2022/12/11 00:21:10;;;;;;;41.20;18.10;;;-2.30;99.90;;;;;;4967509;28;20346;-60
2022/12/11 00:23:37;;;;;;;36.72;17.70;;;-2.30;99.90;;;;;;4962537;28;20075;-60
2022/12/11 00:26:05;;;;;;;35.83;16.27;;;-2.30;99.90;;;;;;4961551;28;20055;-59
2022/12/11 00:28:32;;;;;;;33.97;16.35;;;-2.40;99.90;;;;;;4968048;28;20129;-61
2022/12/11 00:31:05;;;;;;;32.03;15.82;;;-2.30;99.90;;;;;;4968077;28;20051;-61
2022/12/11 00:33:32;;;;;;;38.03;16.83;;;-2.30;99.90;;;;;;4967715;28;20102;-59
2022/12/11 00:35:59;;;;;;;32.13;16.52;;;-2.40;99.90;;;;;;4969817;28;20090;-59
2022/12/11 00:38:26;;;;;;;29.75;14.02;;;-2.40;99.90;;;;;;4971395;28;20077;-60
2022/12/11 00:40:57;;;;;;;28.90;14.25;;;-2.40;99.90;;;;;;4971855;28;20046;-60
2022/12/11 00:43:24;;;;;;;32.53;16.85;;;-2.40;99.90;;;;;;4970776;28;20129;-59
2022/12/11 00:45:50;;;;;;;35.20;14.80;;;-2.40;99.90;;;;;;4971695;28;20061;-59
2022/12/11 00:48:17;;;;;;;33.47;15.50;;;-2.40;99.90;;;;;;4971282;28;20047;-61
2022/12/11 00:50:44;;;;;;;31.15;14.02;;;-2.50;99.90;;;;;;4971837;28;20134;-60
2022/12/11 00:53:11;;;;;;;31.13;15.00;;;-2.50;99.90;;;;;;4969884;28;20142;-59
2022/12/11 00:55:39;;;;;;;37.10;15.48;;;-2.30;99.90;;;;;;4970849;28;20275;-60
2022/12/11 00:58:05;;;;;;;44.15;17.02;;;-2.40;99.90;;;;;;4970881;28;20505;-58
2022/12/11 01:00:32;;;;;;;31.42;15.50;;;-2.40;99.90;;;;;;4986557;28;20336;-60
2022/12/11 01:02:59;;;;;;;39.95;17.00;;;-2.50;99.90;;;;;;4971151;28;20134;-59
2022/12/11 01:05:26;;;;;;;28.95;15.80;;;-2.50;99.90;;;;;;4970757;28;20058;-61
2022/12/11 01:07:53;;;;;;;28.70;16.27;;;-2.50;99.90;;;;;;4970890;28;20047;-60
2022/12/11 01:10:23;;;;;;;33.78;14.48;;;-2.50;99.90;;;;;;4971425;28;20057;-61
2022/12/11 01:12:58;;;;;;;31.17;15.50;;;-2.50;99.90;;;;;;4970850;28;20066;-61
2022/12/11 01:15:27;;;;;;;29.73;14.52;;;-2.50;99.90;;;;;;4969777;28;20122;-59
2022/12/11 01:17:54;;;;;;;27.52;15.48;;;-2.60;99.90;;;;;;4623248;28;10000398;-60
2022/12/11 01:20:21;;;;;;;27.42;14.80;;;-2.60;99.90;;;;;;4968164;28;20100;-61
2022/12/11 01:22:52;;;;;;;35.53;15.02;;;-2.60;99.90;;;;;;4970731;28;20042;-59
2022/12/11 01:25:19;;;;;;;27.48;14.50;;;-2.60;99.90;;;;;;4965886;28;21942;-60
2022/12/11 01:27:45;;;;;;;43.65;16.33;;;-2.70;99.90;;;;;;4970953;28;20086;-60
2022/12/11 01:30:13;;;;;;;27.40;14.00;;;-2.70;99.90;;;;;;4971076;28;20481;-60
2022/12/11 01:32:40;;;;;;;34.83;16.35;;;-2.70;99.90;;;;;;4971032;28;20470;-60
2022/12/11 01:35:07;;;;;;;32.15;14.57;;;-2.70;99.90;;;;;;4970318;28;20077;-60
2022/12/11 01:37:34;;;;;;;31.98;15.02;;;-2.70;99.90;;;;;;4970670;28;20051;-61
2022/12/11 01:40:01;;;;;;;35.05;15.18;;;-2.70;99.90;;;;;;4985630;28;20306;-61
2022/12/11 01:42:30;;;;;;;24.17;14.13;;;-2.70;99.90;;;;;;4970707;28;20074;-60
2022/12/11 01:45:25;;;;;;;26.48;13.55;;;-2.70;99.90;;;;;;4970255;28;20138;-65
2022/12/11 01:47:59;;;;;;;27.73;14.15;;;-2.70;99.90;;;;;;4970106;28;20051;-60
2022/12/11 01:50:27;;;;;;;30.30;14.40;;;-2.70;99.90;;;;;;4969575;28;20431;-59
2022/12/11 01:52:54;;;;;;;26.98;13.63;;;-2.60;99.90;;;;;;4969689;28;20043;-60
2022/12/11 01:55:20;;;;;;;27.83;13.52;;;-2.70;99.90;;;;;;4969756;28;20089;-59
2022/12/11 01:57:48;;;;;;;28.45;14.38;;;-2.70;99.90;;;;;;4968693;28;20067;-60
2022/12/11 02:00:15;;;;;;;29.60;14.82;;;-2.70;99.90;;;;;;4970278;28;20150;-60
2022/12/11 02:02:42;;;;;;;29.63;14.50;;;-2.70;99.90;;;;;;4970358;28;20810;-61
2022/12/11 02:05:09;;;;;;;27.73;13.63;;;-2.80;99.90;;;;;;4969694;28;20061;-62
2022/12/11 02:07:49;;;;;;;27.95;14.73;;;-2.70;99.90;;;;;;4970437;28;20047;-58
2022/12/11 02:10:16;;;;;;;23.52;12.18;;;-2.70;99.90;;;;;;4970294;28;20086;-61
2022/12/11 02:12:48;;;;;;;23.33;12.07;;;-2.70;99.90;;;;;;4968858;28;20141;-60
2022/12/11 02:15:39;;;;;;;27.42;12.80;;;-2.70;99.90;;;;;;4969866;28;20042;-63
2022/12/11 02:18:12;;;;;;;23.80;12.02;;;-2.70;99.90;;;;;;4969077;28;20529;-61
2022/12/11 02:21:04;;;;;;;29.85;12.88;;;-2.70;99.90;;;;;;4968928;28;20067;-60
2022/12/11 02:23:55;;;;;;;27.60;13.88;;;-2.80;99.90;;;;;;4968781;28;20082;-60
2022/12/11 02:26:35;;;;;;;26.35;12.07;;;-2.70;99.90;;;;;;4968274;28;20142;-60
2022/12/11 02:29:05;;;;;;;27.55;12.80;;;-2.80;99.90;;;;;;4970698;28;20101;-61
2022/12/11 02:31:38;;;;;;;26.40;13.32;;;-2.80;99.90;;;;;;4969155;28;20511;-61
2022/12/11 02:34:19;;;;;;;25.92;12.77;;;-2.80;99.90;;;;;;4971897;28;20105;-60
2022/12/11 02:36:50;;;;;;;24.67;12.93;;;-2.90;99.90;;;;;;4971236;28;20505;-61
2022/12/11 02:39:17;;;;;;;17.73;10.77;;;-2.90;99.90;;;;;;4970213;28;20074;-61
2022/12/11 02:41:46;;;;;;;17.02;9.50;;;-2.90;99.90;;;;;;4971084;28;20057;-60
2022/12/11 02:44:13;;;;;;;24.20;11.82;;;-3.00;99.90;;;;;;4969838;28;20093;-60
2022/12/11 02:46:40;;;;;;;25.70;10.38;;;-3.00;99.90;;;;;;4968323;28;20536;-61
2022/12/11 02:49:07;;;;;;;23.42;11.70;;;-2.90;99.90;;;;;;4969868;28;20134;-60
2022/12/11 02:51:37;;;;;;;25.33;12.20;;;-2.90;99.90;;;;;;4968770;28;20043;-61
2022/12/11 02:54:04;;;;;;;18.23;10.60;;;-2.90;99.90;;;;;;4968879;28;20078;-60
2022/12/11 02:56:41;;;;;;;26.02;11.95;;;-2.90;99.90;;;;;;4967827;28;20074;-61
2022/12/11 02:59:16;;;;;;;21.67;10.80;;;-2.90;99.90;;;;;;4967841;28;20089;-62
2022/12/11 03:01:42;;;;;;;20.77;10.60;;;-2.80;99.90;;;;;;4968087;28;20130;-63
2022/12/11 03:04:09;;;;;;;25.52;12.00;;;-2.90;99.90;;;;;;4968094;28;21019;-62
2022/12/11 03:06:45;;;;;;;19.23;9.88;;;-2.90;99.90;;;;;;4983766;28;20818;-61
2022/12/11 03:09:12;;;;;;;21.83;10.68;;;-2.80;99.90;;;;;;4958727;28;20111;-60
2022/12/11 03:11:39;;;;;;;20.98;10.68;;;-2.90;99.90;;;;;;4969043;28;20051;-60
2022/12/11 03:14:05;;;;;;;19.40;11.02;;;-2.90;99.90;;;;;;4969192;28;20075;-60
2022/12/11 03:16:36;;;;;;;18.98;9.38;;;-2.90;99.90;;;;;;4967930;28;20104;-59
2022/12/11 03:19:20;;;;;;;23.02;11.10;;;-2.80;99.90;;;;;;4964292;28;20085;-60
2022/12/11 03:21:56;;;;;;;22.20;10.43;;;-2.90;99.90;;;;;;4967734;28;20093;-59
2022/12/11 03:24:38;;;;;;;20.05;10.13;;;-2.90;99.90;;;;;;4957554;28;20130;-61
2022/12/11 03:27:31;;;;;;;21.73;10.85;;;-2.90;99.90;;;;;;4957270;28;20149;-60
2022/12/11 03:30:00;;;;;;;20.05;9.75;;;-2.90;99.90;;;;;;4968995;28;20085;-61
2022/12/11 03:32:28;;;;;;;20.02;10.63;;;-2.90;99.90;;;;;;4967680;28;20070;-60
2022/12/11 03:35:16;;;;;;;19.10;10.10;;;-2.90;99.90;;;;;;4968102;28;20144;-61
2022/12/11 03:37:42;;;;;;;18.42;9.27;;;-3.00;99.90;;;;;;4968648;28;20126;-61
2022/12/11 03:40:11;;;;;;;22.80;11.65;;;-3.00;99.90;;;;;;4967811;28;20051;-60
2022/12/11 03:42:38;;;;;;;17.60;10.00;;;-3.00;99.90;;;;;;4967410;28;20075;-59
2022/12/11 03:45:05;;;;;;;19.88;10.63;;;-3.00;99.90;;;;;;4967478;28;20138;-59
2022/12/11 03:47:32;;;;;;;20.40;9.88;;;-3.00;99.90;;;;;;4967428;28;20540;-60
2022/12/11 03:49:59;;;;;;;18.13;9.90;;;-3.10;99.90;;;;;;4968964;28;20173;-61
2022/12/11 03:52:26;;;;;;;17.70;9.32;;;-3.20;99.90;;;;;;4961518;28;20475;-58
2022/12/11 03:54:53;;;;;;;23.92;10.38;;;-3.10;99.90;;;;;;4966244;28;20159;-60
2022/12/11 03:57:21;;;;;;;21.30;10.35;;;-3.10;99.90;;;;;;4967089;28;20134;-61
2022/12/11 03:59:48;;;;;;;22.08;10.40;;;-3.00;99.90;;;;;;4963318;28;20122;-61
2022/12/11 04:02:15;;;;;;;22.38;9.75;;;-3.20;99.90;;;;;;4960397;28;20055;-59
2022/12/11 04:04:42;;;;;;;18.75;9.70;;;-3.10;99.90;;;;;;4961637;28;20050;-60
2022/12/11 04:07:09;;;;;;;21.25;8.77;;;-3.10;99.90;;;;;;4962049;28;20082;-58
2022/12/11 04:09:36;;;;;;;22.23;8.98;;;-3.20;99.90;;;;;;4961253;28;20126;-60
2022/12/11 04:12:03;;;;;;;16.90;10.27;;;-3.00;99.90;;;;;;4964767;28;20150;-59
2022/12/11 04:24:13;;;;;;;14.30;7.72;;;-3.20;99.90;;;;;;4965082;28;20098;-60
2022/12/11 04:25:33;;;;;;;13.02;7.22;;;-3.20;99.90;;;;;;4960624;28;20487;-61
2022/12/11 04:28:00;;;;;;;21.52;10.18;;;-3.30;99.90;;;;;;4962448;28;20051;-59
2022/12/11 04:30:27;;;;;;;19.80;9.82;;;-3.30;99.90;;;;;;4970624;28;20130;-59
2022/12/11 04:33:00;;;;;;;22.48;9.95;;;-3.30;99.90;;;;;;4970956;28;20054;-59
2022/12/11 04:35:26;;;;;;;16.55;9.48;;;-3.40;99.90;;;;;;4971131;28;20082;-59
2022/12/11 04:37:53;;;;;;;22.15;10.18;;;-3.40;99.90;;;;;;4970107;28;20074;-60
2022/12/11 04:40:20;;;;;;;23.33;9.30;;;-3.40;99.90;;;;;;4971091;28;20080;-58
2022/12/11 04:42:47;;;;;;;18.17;9.23;;;-3.40;99.90;;;;;;4971195;28;20138;-59
2022/12/11 04:45:14;;;;;;;19.30;9.85;;;-3.30;99.90;;;;;;4971093;28;20101;-59
2022/12/11 04:47:40;;;;;;;22.50;8.23;;;-3.00;99.90;;;;;;4971573;28;20113;-59
2022/12/11 04:50:08;;;;;;;20.38;9.77;;;-3.30;99.90;;;;;;4971361;28;20129;-59
2022/12/11 04:52:35;;;;;;;16.75;9.48;;;-3.20;99.90;;;;;;4971673;28;20082;-59
2022/12/11 04:55:04;;;;;;;14.57;8.65;;;-3.20;99.90;;;;;;4971352;28;20043;-58
2022/12/11 04:57:31;;;;;;;14.15;8.38;;;-3.40;99.90;;;;;;4964936;28;20083;-59
2022/12/11 04:59:58;;;;;;;17.30;8.13;;;-3.30;99.90;;;;;;4971053;28;20138;-59
2022/12/11 05:02:25;;;;;;;22.77;8.57;;;-3.40;99.90;;;;;;4985994;28;20074;-60
2022/12/11 05:04:52;;;;;;;16.50;8.00;;;-3.30;99.90;;;;;;4971511;28;20051;-59
2022/12/11 05:07:19;;;;;;;14.32;7.78;;;-3.30;99.90;;;;;;4970719;28;20065;-60
2022/12/11 05:09:46;;;;;;;17.27;8.75;;;-3.30;99.90;;;;;;4970881;28;20078;-59
2022/12/11 05:12:12;;;;;;;18.20;8.30;;;-3.30;99.90;;;;;;4970660;28;20100;-59
2022/12/11 05:14:39;;;;;;;16.05;8.35;;;-3.30;99.90;;;;;;4970829;28;20546;-60
2022/12/11 05:17:06;;;;;;;17.63;7.68;;;-3.40;99.90;;;;;;4970678;28;20050;-58
2022/12/11 05:19:33;;;;;;;15.70;8.57;;;-3.30;99.90;;;;;;4970841;28;20098;-60
2022/12/11 05:21:59;;;;;;;19.15;7.93;;;-3.40;99.90;;;;;;4969949;28;20130;-60
2022/12/11 05:24:26;;;;;;;15.30;8.32;;;-3.30;99.90;;;;;;4970601;28;20105;-61
2022/12/11 05:26:53;;;;;;;13.98;7.55;;;-3.30;99.90;;;;;;4952605;28;20137;-60
2022/12/11 05:29:20;;;;;;;19.92;8.95;;;-3.40;99.90;;;;;;4970373;28;20049;-59
2022/12/11 05:31:46;;;;;;;15.43;8.13;;;-3.40;99.90;;;;;;4970296;28;20201;-61
2022/12/11 05:34:14;;;;;;;16.20;6.93;;;-3.40;99.90;;;;;;4971034;28;20066;-59
2022/12/11 05:36:41;;;;;;;11.80;8.23;;;-3.40;99.90;;;;;;4970713;28;20122;-59
2022/12/11 05:39:09;;;;;;;22.10;8.63;;;-3.30;99.90;;;;;;4970377;28;20050;-59
2022/12/11 05:41:36;;;;;;;16.70;7.90;;;-3.40;99.90;;;;;;4968892;28;20061;-60
2022/12/11 05:44:03;;;;;;;14.25;7.90;;;-3.40;99.90;;;;;;4970373;28;20074;-59
2022/12/11 05:46:30;;;;;;;16.85;7.82;;;-3.40;99.90;;;;;;4970344;28;20051;-60
2022/12/11 05:48:58;;;;;;;17.08;7.72;;;-3.40;99.90;;;;;;4970381;28;20134;-60
2022/12/11 05:51:25;;;;;;;15.43;7.30;;;-3.40;99.90;;;;;;4970356;28;20094;-59
2022/12/11 05:53:52;;;;;;;14.77;7.15;;;-3.40;99.90;;;;;;4969996;28;20133;-60
2022/12/11 05:56:25;;;;;;;18.73;8.40;;;-3.40;99.90;;;;;;4968805;28;20630;-60
2022/12/11 05:58:51;;;;;;;14.75;7.78;;;-3.40;99.90;;;;;;4970139;28;20486;-59
2022/12/11 06:01:23;;;;;;;14.02;7.25;;;-3.40;99.90;;;;;;4970689;28;20138;-58
2022/12/11 06:03:50;;;;;;;13.30;7.80;;;-3.40;99.90;;;;;;4970076;28;20134;-59
2022/12/11 06:06:17;;;;;;;13.55;7.93;;;-3.40;99.90;;;;;;4970366;28;20055;-60
2022/12/11 06:08:44;;;;;;;17.10;8.48;;;-3.40;99.90;;;;;;4970420;28;20055;-59
2022/12/11 06:11:12;;;;;;;20.77;8.65;;;-3.40;99.90;;;;;;4970255;28;20081;-60
2022/12/11 06:13:39;;;;;;;14.65;7.20;;;-3.40;99.90;;;;;;4970172;28;20054;-59
2022/12/11 06:16:07;;;;;;;15.50;7.18;;;-3.40;99.90;;;;;;4969323;28;20090;-59
2022/12/11 06:18:37;;;;;;;15.02;7.35;;;-3.50;99.90;;;;;;4970023;28;20050;-60
2022/12/11 06:21:22;;;;;;;14.93;7.97;;;-3.50;99.90;;;;;;4970109;28;20134;-58
2022/12/11 06:23:50;;;;;;;12.27;7.93;;;-3.50;99.90;;;;;;4969663;28;20066;-59
2022/12/11 06:26:17;;;;;;;14.43;7.85;;;-3.50;99.90;;;;;;4970117;28;20138;-60
2022/12/11 06:28:45;;;;;;;17.35;7.88;;;-3.50;99.90;;;;;;4969884;28;20457;-59
2022/12/11 06:31:11;;;;;;;17.42;7.30;;;-3.50;99.90;;;;;;4969794;28;20068;-59
2022/12/11 06:33:41;;;;;;;16.50;9.27;;;-3.50;99.90;;;;;;4968309;28;20133;-61
2022/12/11 06:36:13;;;;;;;19.48;9.15;;;-3.50;99.90;;;;;;4970205;28;20130;-59
2022/12/11 06:38:40;;;;;;;17.05;8.10;;;-3.60;99.90;;;;;;4969906;28;20141;-58
2022/12/11 06:41:07;;;;;;;17.77;7.72;;;-3.50;99.90;;;;;;4969739;28;20133;-60
2022/12/11 06:43:34;;;;;;;14.00;6.82;;;-3.50;99.90;;;;;;4969344;28;20103;-60
2022/12/11 06:46:08;;;;;;;13.40;7.05;;;-3.50;99.90;;;;;;4969675;28;20066;-58
2022/12/11 06:48:35;;;;;;;13.15;7.25;;;-3.60;99.90;;;;;;4968309;28;20065;-61
2022/12/11 06:51:09;;;;;;;13.85;6.90;;;-3.40;99.90;;;;;;4962276;28;20055;-60
2022/12/11 06:53:36;;;;;;;16.50;7.50;;;-3.70;99.90;;;;;;4960314;28;20055;-60
2022/12/11 06:56:11;;;;;;;12.10;7.10;;;-3.60;99.90;;;;;;4969452;28;20134;-59
2022/12/11 06:58:38;;;;;;;14.63;6.93;;;-3.60;99.90;;;;;;4969774;28;20390;-60
2022/12/11 07:01:17;;;;;;;13.02;7.28;;;-3.60;99.90;;;;;;4969347;28;20051;-59
2022/12/11 07:03:44;;;;;;;15.65;7.35;;;-3.60;99.90;;;;;;4969591;28;20049;-61
2022/12/11 07:06:11;;;;;;;15.32;7.10;;;-3.50;99.90;;;;;;4969419;28;20471;-60
2022/12/11 07:08:38;;;;;;;17.52;7.75;;;-3.80;99.90;;;;;;4968367;28;20130;-60
2022/12/11 07:11:06;;;;;;;21.20;8.20;;;-3.50;99.90;;;;;;4971414;28;20070;-60
2022/12/11 07:13:33;;;;;;;16.25;8.05;;;-3.50;99.90;;;;;;4952275;28;20134;-57
2022/12/11 07:16:00;;;;;;;15.57;7.95;;;-3.50;99.90;;;;;;4981374;28;20161;-61
2022/12/11 07:18:27;;;;;;;18.13;8.15;;;-3.50;99.90;;;;;;4972504;28;20051;-59
2022/12/11 07:20:56;;;;;;;16.98;7.97;;;-3.40;99.90;;;;;;4971835;28;20119;-60
2022/12/11 07:23:23;;;;;;;16.83;8.43;;;-3.40;99.90;;;;;;4969463;28;20154;-61
2022/12/11 07:25:49;;;;;;;14.85;8.05;;;-3.40;99.90;;;;;;4969273;28;20053;-58
2022/12/11 07:28:16;;;;;;;14.85;8.15;;;-3.30;99.90;;;;;;4969318;28;20055;-59
2022/12/11 07:30:43;;;;;;;20.63;8.50;;;-3.20;99.90;;;;;;4970061;28;20351;-61
2022/12/11 07:33:10;;;;;;;25.33;10.00;;;-3.20;99.90;;;;;;4970326;28;20082;-65
2022/12/11 07:35:37;;;;;;;24.58;10.90;;;-3.20;99.90;;;;;;4969618;28;20462;-60
2022/12/11 07:38:03;;;;;;;30.77;10.73;;;-3.20;99.90;;;;;;4969226;28;20129;-59
2022/12/11 07:40:30;;;;;;;29.00;10.02;;;-3.10;99.90;;;;;;4969529;28;20047;-59
2022/12/11 07:42:57;;;;;;;47.85;11.20;;;-3.20;99.90;;;;;;4967975;28;20748;-60
2022/12/11 07:45:25;;;;;;;35.90;11.45;;;-3.10;99.90;;;;;;4970558;28;20073;-60
2022/12/11 07:47:51;;;;;;;59.13;10.27;;;-3.10;99.90;;;;;;4972069;28;20053;-59
2022/12/11 07:50:18;;;;;;;56.10;11.25;;;-3.00;99.90;;;;;;4972060;28;20042;-61
2022/12/11 07:52:45;;;;;;;55.75;11.48;;;-3.00;99.90;;;;;;4972802;28;20490;-61
2022/12/11 07:55:12;;;;;;;45.72;9.27;;;-3.00;99.90;;;;;;4973184;28;20074;-62
2022/12/11 07:57:39;;;;;;;35.78;10.35;;;-3.00;99.90;;;;;;4972465;28;20105;-60
2022/12/11 08:00:06;;;;;;;48.80;10.38;;;-3.00;99.90;;;;;;4973048;28;20158;-61
2022/12/11 08:02:33;;;;;;;65.72;10.52;;;-2.90;99.90;;;;;;4972233;28;20082;-60
2022/12/11 08:05:03;;;;;;;44.00;9.63;;;-3.00;99.90;;;;;;4972648;28;20078;-60
2022/12/11 08:07:32;;;;;;;31.95;9.10;;;-3.00;99.90;;;;;;4972169;28;20050;-61
2022/12/11 08:09:59;;;;;;;40.28;10.25;;;-2.90;99.90;;;;;;4972622;28;20051;-60
2022/12/11 08:12:25;;;;;;;44.28;11.88;;;-2.90;99.90;;;;;;4972131;28;20130;-61
2022/12/11 08:14:52;;;;;;;48.67;12.50;;;-2.90;99.90;;;;;;4971140;28;20512;-60
2022/12/11 08:17:19;;;;;;;64.13;12.20;;;-2.80;99.90;;;;;;4972339;28;20532;-61
2022/12/11 08:19:53;;;;;;;44.50;12.45;;;-2.80;99.90;;;;;;4972845;28;20418;-60
2022/12/11 08:22:19;;;;;;;37.53;11.45;;;-2.80;99.90;;;;;;4972039;28;20051;-60
2022/12/11 08:24:46;;;;;;;45.58;12.80;;;-2.80;99.90;;;;;;4971689;28;20546;-61
2022/12/11 08:27:13;;;;;;;29.10;12.30;;;-2.80;99.90;;;;;;4967908;28;20165;-60
2022/12/11 08:29:40;;;;;;;32.17;13.23;;;-2.70;99.90;;;;;;4972225;28;20055;-60
2022/12/11 08:32:06;;;;;;;23.83;11.70;;;-2.70;99.90;;;;;;4969953;28;20316;-61
2022/12/11 08:34:38;;;;;;;25.92;11.38;;;-2.60;99.90;;;;;;4972194;28;20270;-61
2022/12/11 08:37:05;;;;;;;34.05;13.20;;;-2.60;99.90;;;;;;4971319;28;20138;-60
2022/12/11 08:39:32;;;;;;;27.17;10.50;;;-2.60;99.90;;;;;;4971075;28;20078;-62
2022/12/11 08:41:59;;;;;;;23.67;9.52;;;-2.60;99.90;;;;;;4971767;28;20137;-60
2022/12/11 08:44:26;;;;;;;22.83;9.70;;;-2.60;99.90;;;;;;4970945;28;20130;-61
2022/12/11 08:46:53;;;;;;;42.72;10.15;;;-2.50;99.90;;;;;;4986945;28;20474;-61
2022/12/11 08:49:20;;;;;;;28.75;8.98;;;-2.50;99.90;;;;;;4970503;28;20055;-61
2022/12/11 08:51:47;;;;;;;27.83;10.05;;;-2.50;99.90;;;;;;4971642;28;20134;-61
2022/12/11 08:54:13;;;;;;;26.20;8.27;;;-2.50;99.90;;;;;;4967085;28;20090;-60
2022/12/11 08:56:40;;;;;;;40.35;8.77;;;-2.50;99.90;;;;;;4967484;28;20057;-60
2022/12/11 08:59:07;;;;;;;40.15;8.63;;;-2.50;99.90;;;;;;4970928;28;20129;-60
2022/12/11 09:01:34;;;;;;;83.47;9.88;;;-2.60;99.90;;;;;;4971670;28;20093;-61
2022/12/11 09:04:01;;;;;;;42.70;7.60;;;-2.60;99.90;;;;;;4971073;28;20252;-61
2022/12/11 09:06:28;;;;;;;45.17;8.75;;;-2.60;99.90;;;;;;4971151;28;20085;-61
2022/12/11 09:08:55;;;;;;;38.88;9.40;;;-3.00;99.90;;;;;;4970956;28;20047;-61
2022/12/11 09:11:27;;;;;;;51.70;8.82;;;-2.40;99.90;;;;;;4971292;28;20078;-61
2022/12/11 09:13:56;;;;;;;;;;;-2.30;99.90;;;;;;4969779;28;20449;-59
2022/12/11 09:16:27;;;;;;;51.42;8.90;;;-2.60;99.90;;;;;;4980319;28;19933;-60
2022/12/11 09:18:55;;;;;;;45.40;10.55;;;-2.60;99.90;;;;;;4970740;28;20047;-62
2022/12/11 09:21:24;;;;;;;45.30;9.60;;;-2.60;99.90;;;;;;4971380;28;20093;-62
2022/12/11 09:23:54;;;;;;;30.35;9.23;;;-2.70;99.90;;;;;;4970506;28;20141;-60
2022/12/11 09:26:21;;;;;;;24.52;8.32;;;-2.60;99.90;;;;;;4970923;28;20130;-60
2022/12/11 09:28:51;;;;;;;38.92;9.32;;;-2.60;99.90;;;;;;4969618;28;20062;-60
2022/12/11 09:31:22;;;;;;;17.98;8.05;;;-2.50;99.90;;;;;;4969840;28;20055;-62
2022/12/11 09:33:50;;;;;;;27.00;9.82;;;-2.50;99.90;;;;;;4970697;28;20082;-59
2022/12/11 09:36:17;;;;;;;18.35;8.63;;;-2.40;99.90;;;;;;4970758;28;20059;-58
2022/12/11 09:38:44;;;;;;;19.52;8.75;;;-2.40;99.90;;;;;;4970955;28;20141;-60
2022/12/11 09:41:55;;;;;;;27.58;8.40;;;-2.30;99.90;;;;;;4970171;28;20078;-61
2022/12/11 09:44:38;;;;;;;24.85;10.23;;;-2.30;99.90;;;;;;4951058;28;20051;-59
2022/12/11 09:47:34;;;;;;;27.30;9.25;;;-2.20;99.90;;;;;;4970129;28;20054;-60
2022/12/11 09:50:12;;;;;;;18.92;8.85;;;-2.10;99.90;;;;;;4970377;28;20043;-60
2022/12/11 09:52:49;;;;;;;30.65;9.63;;;-2.20;99.90;;;;;;4970480;28;20517;-60
2022/12/11 09:55:23;;;;;;;31.23;9.77;;;-2.10;99.90;;;;;;4969194;28;20047;-60
2022/12/11 09:57:56;;;;;;;22.77;10.27;;;-2.00;99.90;;;;;;4970073;28;20514;-60
2022/12/11 10:00:42;;;;;;;25.60;11.45;;;-1.90;99.90;;;;;;4970290;28;20078;-60
2022/12/11 10:03:24;;;;;;;23.58;10.35;;;-1.80;99.90;;;;;;4968873;28;20105;-61
2022/12/11 10:06:03;;;;;;;21.92;9.57;;;-1.70;99.90;;;;;;4969530;28;20125;-61
2022/12/11 10:08:46;;;;;;;27.67;10.07;;;-1.70;99.90;;;;;;4969008;28;20485;-61
2022/12/11 10:11:31;;;;;;;24.25;10.45;;;-1.70;99.90;;;;;;4969966;28;20101;-61
2022/12/11 10:14:01;;;;;;;25.08;12.32;;;-1.60;99.90;;;;;;4984308;28;20062;-61
2022/12/11 10:16:48;;;;;;;21.13;8.85;;;-1.70;99.90;;;;;;4969744;28;20097;-61
2022/12/11 10:19:28;;;;;;;20.98;9.35;;;-1.70;99.90;;;;;;4970242;28;20078;-60
2022/12/11 10:21:55;;;;;;;30.55;11.60;;;-1.60;99.90;;;;;;4969045;28;20074;-60
2022/12/11 10:24:36;;;;;;;21.25;9.70;;;-1.60;99.90;;;;;;4968748;28;20119;-59
2022/12/11 10:27:27;;;;;;;22.88;10.13;;;-1.60;99.90;;;;;;4968268;28;20050;-60
2022/12/11 10:30:04;;;;;;;24.60;10.55;;;-1.60;99.90;;;;;;4969934;28;20138;-60
2022/12/11 10:32:57;;;;;;;19.52;10.15;;;-1.60;99.90;;;;;;4969101;28;20097;-60
2022/12/11 10:35:27;;;;;;;18.85;9.63;;;-1.60;99.90;;;;;;4975878;28;20101;-60
2022/12/11 10:38:19;;;;;;;20.40;10.15;;;-1.60;99.90;;;;;;4969435;28;20138;-60
2022/12/11 10:40:51;;;;;;;19.33;9.95;;;-1.50;99.90;;;;;;4967418;28;20078;-60
2022/12/11 10:43:18;;;;;;;22.85;12.05;;;-1.60;99.90;;;;;;4969097;28;20085;-61
2022/12/11 10:45:54;;;;;;;31.45;12.13;;;-1.50;99.90;;;;;;4968938;28;20066;-60
2022/12/11 10:48:21;;;;;;;35.92;13.02;;;-1.50;99.90;;;;;;4967965;28;20133;-60
2022/12/11 10:51:02;;;;;;;25.00;12.25;;;-1.50;99.90;;;;;;4968244;28;20046;-60
2022/12/11 10:53:29;;;;;;;47.42;12.30;;;-1.00;99.90;;;;;;4969185;28;20086;-60
2022/12/11 10:55:57;;;;;;;26.13;11.27;;;-1.50;99.90;;;;;;4967818;28;20080;-60
2022/12/11 10:58:32;;;;;;;37.85;12.95;;;-1.50;99.90;;;;;;4967700;28;20090;-61
2022/12/11 11:01:05;;;;;;;26.48;10.57;;;-1.40;99.90;;;;;;4968269;28;20072;-61
2022/12/11 11:03:32;;;;;;;35.30;13.15;;;-1.40;99.90;;;;;;4968992;28;20046;-60
2022/12/11 11:06:18;;;;;;;29.35;13.10;;;-1.40;99.90;;;;;;4967998;28;20104;-60
2022/12/11 11:08:48;;;;;;;31.42;13.23;;;-1.40;99.90;;;;;;4967529;28;20514;-60
2022/12/11 11:11:35;;;;;;;26.42;12.55;;;-1.30;99.90;;;;;;4969162;28;20047;-60
2022/12/11 11:14:19;;;;;;;30.13;13.48;;;-1.20;99.90;;;;;;4966896;28;20387;-60
2022/12/11 11:16:47;;;;;;;44.65;15.80;;;-1.30;99.90;;;;;;4968950;28;20051;-59
2022/12/11 11:19:22;;;;;;;39.75;14.68;;;-1.20;99.90;;;;;;4967262;28;20074;-60
2022/12/11 11:21:53;;;;;;;32.63;14.38;;;-1.30;99.90;;;;;;4968481;28;20097;-59
2022/12/11 11:24:31;;;;;;;32.67;13.77;;;-1.30;99.90;;;;;;4967329;28;20146;-61
2022/12/11 11:26:58;;;;;;;31.38;14.38;;;-1.20;99.90;;;;;;4968631;28;20600;-60
2022/12/11 11:29:40;;;;;;;37.53;14.65;;;-1.10;99.90;;;;;;4968515;28;20133;-60
2022/12/11 11:32:15;;;;;;;39.67;15.77;;;-1.20;99.90;;;;;;4967378;28;20109;-60
2022/12/11 11:34:42;;;;;;;36.92;15.13;;;-1.10;99.90;;;;;;4967221;28;20512;-61
2022/12/11 11:37:23;;;;;;;37.45;14.82;;;-1.20;99.90;;;;;;4969374;28;20166;-60
2022/12/11 11:39:51;;;;;;;43.50;15.63;;;-1.20;99.90;;;;;;4983061;28;20069;-60
2022/12/11 11:42:36;;;;;;;42.65;17.25;;;-1.20;99.90;;;;;;4968542;28;20055;-64
2022/12/11 11:45:08;;;;;;;34.63;14.30;;;-1.10;99.90;;;;;;4966881;28;20530;-60
2022/12/11 11:47:42;;;;;;;38.38;16.85;;;-1.00;99.90;;;;;;4968091;28;20043;-61
2022/12/11 11:50:15;;;;;;;44.13;15.88;;;-0.90;99.90;;;;;;4967826;28;20090;-60
2022/12/11 11:52:51;;;;;;;34.70;16.27;;;-0.90;99.90;;;;;;4967814;28;20129;-60
2022/12/11 11:55:36;;;;;;;40.40;14.70;;;-1.00;99.90;;;;;;4967219;28;20125;-61
2022/12/11 11:58:11;;;;;;;30.13;13.85;;;-1.00;99.90;;;;;;4967947;28;20077;-61
2022/12/11 12:00:38;;;;;;;33.60;15.02;;;-1.00;99.90;;;;;;4970139;28;20090;-62
2022/12/11 12:03:10;;;;;;;33.08;15.07;;;-0.90;99.90;;;;;;4970503;28;20134;-61
2022/12/11 12:05:55;;;;;;;28.63;15.20;;;-0.90;99.90;;;;;;4970050;28;20054;-60
2022/12/11 12:08:40;;;;;;;35.95;16.52;;;-0.80;99.90;;;;;;4970087;28;20110;-60
2022/12/11 12:11:36;;;;;;;30.98;15.32;;;-0.80;99.90;;;;;;4964307;28;20133;-61
2022/12/11 12:14:13;;;;;;;38.53;16.15;;;-0.70;99.90;;;;;;4965000;28;20082;-61
2022/12/11 12:17:25;;;;;;;28.60;14.60;;;-0.70;99.90;;;;;;4964480;28;20449;-60
2022/12/11 12:20:05;;;;;;;33.92;13.02;;;-0.60;99.90;;;;;;4931208;28;20093;-60
2022/12/11 12:22:52;;;;;;;26.48;12.20;;;-0.60;99.90;;;;;;4968559;28;20051;-60
2022/12/11 12:25:35;;;;;;;28.00;13.13;;;-0.50;99.90;;;;;;4968642;28;20142;-62
2022/12/11 12:28:14;;;;;;;27.58;12.27;;;-0.40;99.90;;;;;;4967158;28;20070;-60
2022/12/11 12:30:54;;;;;;;27.80;13.07;;;-0.40;99.90;;;;;;4967154;28;20087;-62
2022/12/11 12:33:37;;;;;;;33.38;13.45;;;-0.40;99.90;;;;;;4971436;28;20062;-61
2022/12/11 12:36:07;;;;;;;30.17;14.45;;;-0.40;99.90;;;;;;4986305;28;20042;-60
2022/12/11 12:39:00;;;;;;;26.35;11.88;;;-0.50;99.90;;;;;;4970915;28;20047;-63
2022/12/11 12:41:54;;;;;;;31.48;13.57;;;-0.50;99.90;;;;;;4971371;28;20090;-61
2022/12/11 12:44:21;;;;;;;32.95;14.25;;;-0.60;99.90;;;;;;4970320;28;20051;-59
2022/12/11 12:47:08;;;;;;;33.55;13.63;;;-0.50;99.90;;;;;;4971656;28;20538;-60
2022/12/11 12:49:40;;;;;;;31.85;14.35;;;-0.50;99.90;;;;;;4969343;28;20418;-61
2022/12/11 12:52:20;;;;;;;31.52;15.30;;;-0.50;99.90;;;;;;4965138;28;20043;-60
2022/12/11 12:57:35;;;;;;;32.83;13.57;;;-0.50;99.90;;;;;;4971072;28;20553;-60
2022/12/11 13:00:04;;;;;;;29.75;13.55;;;-0.50;99.90;;;;;;4971672;28;20132;-60
2022/12/11 13:02:48;;;;;;;33.53;13.70;;;-0.40;99.90;;;;;;4971564;28;20046;-61